createdAt,value
2023-05-03T00:02:16.748Z,61.10
2023-05-03T00:04:46.720Z,60.90
2023-05-03T00:07:14.925Z,60.90
2023-05-03T00:09:42.762Z,61.20
2023-05-03T00:12:10.306Z,61.00
2023-05-03T00:14:37.800Z,60.90
2023-05-03T00:17:05.311Z,60.50
2023-05-03T00:19:33.946Z,60.80
2023-05-03T00:22:01.459Z,60.50
2023-05-03T00:24:28.973Z,60.70
2023-05-03T00:26:56.520Z,60.50
2023-05-03T00:29:24.007Z,60.60
2023-05-03T00:31:51.584Z,60.40
2023-05-03T00:34:19.079Z,60.30
2023-05-03T00:36:46.640Z,60.60
2023-05-03T00:39:14.483Z,60.90
2023-05-03T00:41:42.217Z,60.70
2023-05-03T00:44:09.752Z,60.90
2023-05-03T00:46:37.302Z,61.10
2023-05-03T00:49:04.940Z,60.80
2023-05-03T00:51:33.410Z,60.80
2023-05-03T00:54:01.043Z,60.80
2023-05-03T00:56:33.015Z,60.80
2023-05-03T00:59:06.402Z,60.50
2023-05-03T01:01:34.063Z,60.60
2023-05-03T01:04:03.299Z,60.70
2023-05-03T01:06:44.770Z,60.50
2023-05-03T01:09:26.916Z,60.20
2023-05-03T01:12:09.815Z,60.60
2023-05-03T01:15:18.900Z,60.50
2023-05-03T01:17:51.328Z,60.30
2023-05-03T01:20:26.412Z,60.30
2023-05-03T01:22:59.894Z,60.40
2023-05-03T01:25:27.570Z,60.80
2023-05-03T01:27:55.123Z,60.70
2023-05-03T01:30:26.572Z,60.40
2023-05-03T01:33:14.113Z,60.10
2023-05-03T01:36:11.656Z,60.40
2023-05-03T01:38:39.596Z,60.40
2023-05-03T01:41:11.977Z,60.10
2023-05-03T01:43:41.571Z,60.50
2023-05-03T01:46:09.138Z,60.60
2023-05-03T01:48:36.804Z,60.40
2023-05-03T01:51:04.369Z,60.50
2023-05-03T01:53:32.074Z,60.10
2023-05-03T01:55:59.611Z,60.20
2023-05-03T01:58:27.156Z,60.20
2023-05-03T02:00:55.129Z,60.30
2023-05-03T02:03:22.889Z,60.20
2023-05-03T02:05:50.478Z,61.00
2023-05-03T02:08:17.982Z,61.00
2023-05-03T02:10:45.641Z,61.20
2023-05-03T02:13:13.368Z,60.80
2023-05-03T02:15:41.644Z,60.90
2023-05-03T02:18:09.908Z,61.10
2023-05-03T02:20:38.385Z,60.90
2023-05-03T02:23:06.143Z,60.90
2023-05-03T02:25:33.674Z,60.80
2023-05-03T02:28:01.425Z,61.10
2023-05-03T02:30:29.133Z,61.20
2023-05-03T02:32:56.696Z,61.30
2023-05-03T02:35:24.226Z,61.10
2023-05-03T02:37:53.108Z,61.20
2023-05-03T02:40:20.654Z,60.90
2023-05-03T02:42:48.154Z,60.90
2023-05-03T02:45:15.755Z,60.70
2023-05-03T02:47:43.377Z,61.50
2023-05-03T02:50:11.407Z,61.40
2023-05-03T02:52:38.944Z,61.20
2023-05-03T02:55:06.956Z,61.50
2023-05-03T02:57:34.562Z,61.30
2023-05-03T03:00:02.413Z,61.30
2023-05-03T03:02:30.279Z,61.20
2023-05-03T03:04:57.912Z,61.50
2023-05-03T03:07:25.446Z,61.50
2023-05-03T03:09:52.923Z,61.50
2023-05-03T03:12:20.485Z,61.50
2023-05-03T03:14:47.976Z,61.50
2023-05-03T03:17:15.484Z,61.70
2023-05-03T03:19:43.062Z,61.40
2023-05-03T03:22:10.650Z,61.70
2023-05-03T03:24:38.417Z,61.60
2023-05-03T03:27:06.081Z,61.70
2023-05-03T03:29:34.446Z,61.70
2023-05-03T03:32:02.061Z,61.50
2023-05-03T03:34:29.744Z,61.50
2023-05-03T03:36:57.251Z,61.60
2023-05-03T03:39:24.776Z,61.70
2023-05-03T03:41:52.440Z,61.50
2023-05-03T03:44:20.153Z,62.80
2023-05-03T03:46:47.636Z,62.90
2023-05-03T03:49:15.162Z,62.90
2023-05-03T03:51:42.686Z,62.80
2023-05-03T03:54:10.268Z,62.60
2023-05-03T03:56:37.770Z,62.70
2023-05-03T03:59:05.332Z,62.70
2023-05-03T04:01:32.802Z,62.80
2023-05-03T04:04:00.439Z,62.90
2023-05-03T04:06:29.154Z,62.90
2023-05-03T04:08:56.755Z,63.00
2023-05-03T04:11:24.270Z,63.10
2023-05-03T04:13:52.013Z,63.10
2023-05-03T04:16:19.783Z,63.10
2023-05-03T04:18:47.629Z,63.10
2023-05-03T04:21:15.138Z,63.20
2023-05-03T04:23:42.869Z,63.30
2023-05-03T04:26:23.504Z,63.30
2023-05-03T04:28:58.464Z,63.30
2023-05-03T04:31:27.198Z,63.30
2023-05-03T04:33:54.838Z,63.30
2023-05-03T04:36:26.043Z,63.50
2023-05-03T04:38:53.601Z,63.60
2023-05-03T04:41:21.254Z,63.50
2023-05-03T04:43:48.784Z,63.70
2023-05-03T04:46:17.117Z,63.70
2023-05-03T04:48:46.283Z,63.90
2023-05-03T04:51:13.808Z,63.80
2023-05-03T04:53:41.447Z,64.10
2023-05-03T04:56:09.055Z,64.10
2023-05-03T04:58:37.285Z,64.20
2023-05-03T05:01:04.906Z,64.30
2023-05-03T05:03:32.540Z,64.10
2023-05-03T05:06:00.444Z,64.40
2023-05-03T05:08:28.049Z,64.50
2023-05-03T05:10:56.281Z,64.90
2023-05-03T05:13:23.782Z,64.60
2023-05-03T05:15:51.313Z,64.80
2023-05-03T05:18:18.897Z,64.80
2023-05-03T05:20:46.909Z,65.00
2023-05-03T05:23:14.478Z,65.20
2023-05-03T05:25:45.696Z,65.40
2023-05-03T05:28:13.233Z,65.70
2023-05-03T05:30:40.784Z,65.40
2023-05-03T05:33:08.339Z,65.50
2023-05-03T05:35:36.057Z,65.70
2023-05-03T05:38:03.563Z,65.80
2023-05-03T05:40:31.099Z,66.00
2023-05-03T05:42:58.642Z,66.00
2023-05-03T05:45:26.199Z,66.00
2023-05-03T05:47:53.717Z,66.10
2023-05-03T05:50:21.497Z,66.30
2023-05-03T05:52:52.809Z,66.30
2023-05-03T05:55:21.484Z,66.50
2023-05-03T05:57:49.008Z,66.30
2023-05-03T06:00:17.711Z,66.20
2023-05-03T06:02:45.967Z,66.20
2023-05-03T06:05:13.636Z,66.40
2023-05-03T06:07:41.145Z,66.40
2023-05-03T06:10:08.988Z,66.40
2023-05-03T06:12:37.230Z,66.60
2023-05-03T06:15:05.881Z,66.60
2023-05-03T06:17:33.718Z,66.70
2023-05-03T06:20:02.219Z,66.90
2023-05-03T06:22:29.989Z,67.00
2023-05-03T06:24:58.087Z,67.10
2023-05-03T06:27:26.050Z,67.40
2023-05-03T06:29:53.782Z,67.30
2023-05-03T06:32:22.288Z,67.50
2023-05-03T06:34:50.876Z,67.80
2023-05-03T06:37:18.740Z,68.10
2023-05-03T06:39:46.668Z,68.10
2023-05-03T06:42:14.402Z,68.90
2023-05-03T06:44:43.356Z,69.10
2023-05-03T06:47:11.225Z,69.30
2023-05-03T06:49:38.778Z,69.00
2023-05-03T06:52:09.423Z,68.90
2023-05-03T06:54:38.513Z,69.00
2023-05-03T06:57:06.160Z,68.60
2023-05-03T06:59:33.657Z,68.70
2023-05-03T07:02:01.182Z,68.70
2023-05-03T07:04:30.277Z,68.60
2023-05-03T07:06:57.806Z,68.60
2023-05-03T07:09:39.309Z,68.70
2023-05-03T07:12:10.679Z,68.50
2023-05-03T07:14:39.924Z,68.80
2023-05-03T07:17:07.664Z,68.80
2023-05-03T07:19:35.464Z,68.90
2023-05-03T07:22:03.645Z,69.00
2023-05-03T07:24:31.144Z,69.10
2023-05-03T07:26:59.264Z,69.00
2023-05-03T07:29:27.785Z,69.20
2023-05-03T07:31:55.535Z,69.30
2023-05-03T07:34:23.106Z,69.50
2023-05-03T07:36:50.699Z,69.70
2023-05-03T07:39:18.829Z,69.60
2023-05-03T07:41:47.193Z,69.60
2023-05-03T07:44:14.703Z,69.50
2023-05-03T07:46:42.303Z,69.50
2023-05-03T07:49:09.842Z,69.40
2023-05-03T07:51:38.589Z,69.30
2023-05-03T07:54:06.555Z,69.30
2023-05-03T07:56:34.262Z,69.40
2023-05-03T08:01:32.415Z,70.00
2023-05-03T08:04:00.104Z,69.40
2023-05-03T08:06:28.482Z,69.50
2023-05-03T08:08:56.070Z,69.40
2023-05-03T08:11:23.590Z,69.70
2023-05-03T08:13:51.167Z,69.60
2023-05-03T08:16:18.750Z,69.70
2023-05-03T08:18:47.263Z,69.60
2023-05-03T08:21:17.048Z,69.50
2023-05-03T08:23:45.299Z,69.60
2023-05-03T08:26:14.393Z,69.80
2023-05-03T08:28:42.561Z,69.70
2023-05-03T08:31:10.294Z,69.90
2023-05-03T08:33:37.879Z,69.90
2023-05-03T08:36:05.839Z,70.00
2023-05-03T08:38:36.902Z,69.80
2023-05-03T08:41:14.911Z,69.90
2023-05-03T08:43:48.792Z,70.00
2023-05-03T08:46:16.551Z,69.80
2023-05-03T08:48:45.365Z,69.80
2023-05-03T08:51:14.172Z,69.80
2023-05-03T08:53:41.869Z,69.90
2023-05-03T08:56:10.452Z,70.10
2023-05-03T08:58:37.985Z,70.70
2023-05-03T09:01:06.758Z,70.00
2023-05-03T09:03:35.194Z,70.00
2023-05-03T09:06:03.692Z,70.10
2023-05-03T09:08:32.741Z,70.20
2023-05-03T09:11:00.308Z,70.40
2023-05-03T09:13:34.526Z,70.20
2023-05-03T09:16:03.214Z,70.30
2023-05-03T09:18:30.953Z,70.30
2023-05-03T09:20:59.262Z,70.40
2023-05-03T09:23:26.744Z,70.40
2023-05-03T09:25:54.450Z,70.30
2023-05-03T09:28:22.074Z,70.20
2023-05-03T09:30:50.771Z,70.20
2023-05-03T09:33:29.293Z,70.10
2023-05-03T09:36:06.342Z,70.20
2023-05-03T09:38:39.490Z,70.20
2023-05-03T09:41:07.206Z,70.20
2023-05-03T09:43:36.257Z,70.20
2023-05-03T09:46:12.509Z,70.20
2023-05-03T09:48:41.274Z,70.10
2023-05-03T09:51:10.108Z,70.10
2023-05-03T09:53:39.511Z,70.20
2023-05-03T09:56:10.288Z,70.30
2023-05-03T09:58:38.666Z,70.20
2023-05-03T10:01:06.853Z,70.10
2023-05-03T10:03:42.451Z,70.10
2023-05-03T10:06:29.233Z,70.20
2023-05-03T10:09:10.985Z,70.10
2023-05-03T10:11:38.671Z,70.10
2023-05-03T10:14:08.018Z,70.10
2023-05-03T10:16:39.427Z,70.10
2023-05-03T10:19:19.050Z,70.10
2023-05-03T10:22:15.953Z,70.20
2023-05-03T10:25:07.585Z,70.30
2023-05-03T10:27:47.271Z,70.40
2023-05-03T10:30:31.489Z,70.20
2023-05-03T10:33:00.564Z,70.20
2023-05-03T10:35:29.821Z,70.40
2023-05-03T10:37:57.966Z,70.30
2023-05-03T10:40:44.658Z,70.40
2023-05-03T10:43:30.647Z,70.40
2023-05-03T10:45:58.175Z,70.40
2023-05-03T10:48:26.820Z,70.40
2023-05-03T10:50:54.933Z,70.40
2023-05-03T10:53:38.552Z,70.60
2023-05-03T10:56:08.564Z,70.60
2023-05-03T10:58:42.826Z,70.50
2023-05-03T11:01:14.416Z,70.40
2023-05-03T11:04:05.937Z,70.40
2023-05-03T11:06:36.293Z,70.50
2023-05-03T11:09:07.036Z,70.50
2023-05-03T11:11:37.908Z,70.50
2023-05-03T11:14:06.283Z,70.50
2023-05-03T11:16:34.072Z,70.40
2023-05-03T11:19:02.971Z,70.50
2023-05-03T11:21:31.395Z,69.50
2023-05-03T11:24:00.004Z,69.50
2023-05-03T11:26:27.840Z,69.50
2023-05-03T11:28:55.458Z,70.20
2023-05-03T11:31:23.370Z,69.40
2023-05-03T11:33:51.609Z,69.50
2023-05-03T11:36:19.152Z,69.40
2023-05-03T11:38:46.726Z,69.20
2023-05-03T11:41:19.200Z,69.20
2023-05-03T11:44:00.506Z,69.40
2023-05-03T11:46:35.972Z,69.40
2023-05-03T11:49:03.929Z,69.50
2023-05-03T11:51:31.713Z,69.50
2023-05-03T11:54:12.824Z,69.40
2023-05-03T11:56:48.719Z,69.40
2023-05-03T11:59:17.326Z,69.50
2023-05-03T12:01:49.652Z,69.50
2023-05-03T12:04:18.358Z,69.50
2023-05-03T12:06:54.027Z,69.40
2023-05-03T12:09:26.013Z,69.40
2023-05-03T12:11:55.314Z,69.20
2023-05-03T12:14:23.482Z,69.20
2023-05-03T12:16:54.074Z,69.10
2023-05-03T12:19:32.774Z,69.10
2023-05-03T12:24:33.368Z,68.90
2023-05-03T12:27:02.856Z,69.00
2023-05-03T12:29:35.415Z,68.70
2023-05-03T12:32:04.995Z,68.50
2023-05-03T12:34:36.352Z,68.40
2023-05-03T12:37:06.221Z,68.20
2023-05-03T12:39:34.614Z,68.10
2023-05-03T12:42:09.434Z,68.30
2023-05-03T12:44:42.747Z,68.30
2023-05-03T12:47:11.504Z,68.20
2023-05-03T12:49:45.821Z,68.30
2023-05-03T12:52:36.192Z,68.40
2023-05-03T12:55:03.894Z,68.30
2023-05-03T12:57:36.838Z,68.00
2023-05-03T13:00:14.705Z,67.70
2023-05-03T13:07:55.601Z,67.90
2023-05-03T13:10:24.940Z,68.00
2023-05-03T13:12:54.245Z,68.10
2023-05-03T13:15:21.696Z,68.30
2023-05-03T13:17:51.521Z,68.10
2023-05-03T13:20:20.524Z,68.10
2023-05-03T13:22:49.599Z,68.10
2023-05-03T13:25:17.213Z,68.20
2023-05-03T13:27:44.787Z,68.20
2023-05-03T13:30:12.491Z,68.20
2023-05-03T13:32:40.002Z,68.00
2023-05-03T13:35:09.800Z,68.10
2023-05-03T13:37:37.402Z,68.10
2023-05-03T13:40:05.678Z,68.10
2023-05-03T13:42:34.630Z,68.00
2023-05-03T13:45:02.419Z,68.00
2023-05-03T13:47:41.890Z,68.10
2023-05-03T13:50:17.744Z,68.00
2023-05-03T13:52:45.578Z,68.10
2023-05-03T13:55:13.149Z,68.10
2023-05-03T13:57:41.223Z,68.10
2023-05-03T14:00:10.416Z,68.00
2023-05-03T14:02:37.948Z,68.10
2023-05-03T14:05:05.912Z,67.70
2023-05-03T14:07:36.619Z,67.50
2023-05-03T14:10:06.408Z,67.70
2023-05-03T14:12:36.997Z,67.80
2023-05-03T14:15:05.835Z,67.90
2023-05-03T14:17:33.706Z,68.00
2023-05-03T14:20:08.319Z,67.90
2023-05-03T14:22:36.022Z,67.80
2023-05-03T14:25:04.072Z,67.70
2023-05-03T14:27:31.516Z,67.70
2023-05-03T14:29:59.006Z,67.70
2023-05-03T14:32:27.326Z,67.70
2023-05-03T14:34:54.950Z,67.80
2023-05-03T14:37:23.012Z,67.80
2023-05-03T14:39:50.561Z,67.90
2023-05-03T14:42:18.053Z,67.80
2023-05-03T14:44:45.571Z,67.70
2023-05-03T14:47:13.087Z,67.80
2023-05-03T14:49:41.708Z,67.80
2023-05-03T14:52:09.418Z,68.50
2023-05-03T14:54:38.156Z,67.70
2023-05-03T14:57:05.760Z,67.80
2023-05-03T14:59:33.983Z,67.30
2023-05-03T15:02:02.138Z,67.20
2023-05-03T15:04:30.002Z,67.20
2023-05-03T15:07:03.960Z,67.30
2023-05-03T15:09:32.081Z,67.40
2023-05-03T15:12:02.004Z,67.30
2023-05-03T15:14:30.262Z,67.40
2023-05-03T15:16:57.754Z,67.30
2023-05-03T15:19:26.887Z,67.20
2023-05-03T15:21:54.482Z,67.00
2023-05-03T15:24:24.735Z,67.00
2023-05-03T15:26:52.287Z,67.10
2023-05-03T15:29:20.107Z,67.20
2023-05-03T15:31:47.726Z,67.00
2023-05-03T15:34:15.542Z,67.10
2023-05-03T15:36:43.103Z,67.10
2023-05-03T15:39:10.623Z,67.00
2023-05-03T15:41:38.126Z,66.80
2023-05-03T15:44:07.515Z,66.70
2023-05-03T15:46:35.491Z,66.80
2023-05-03T15:49:03.311Z,67.00
2023-05-03T15:51:31.829Z,67.00
2023-05-03T15:53:59.952Z,67.00
2023-05-03T15:56:27.935Z,67.00
2023-05-03T15:58:55.859Z,67.10
2023-05-03T16:01:23.758Z,67.20
2023-05-03T16:03:51.829Z,67.10
2023-05-03T16:06:19.607Z,67.10
2023-05-03T16:08:47.234Z,67.20
2023-05-03T16:11:15.277Z,67.10
2023-05-03T16:13:43.329Z,67.10
2023-05-03T16:16:10.830Z,67.00
2023-05-03T16:18:39.941Z,66.90
2023-05-03T16:21:07.663Z,66.80
2023-05-03T16:23:35.319Z,66.70
2023-05-03T16:26:18.303Z,66.80
2023-05-03T16:28:46.484Z,66.80
2023-05-03T16:31:15.713Z,66.40
2023-05-03T16:33:43.855Z,66.40
2023-05-03T16:36:12.393Z,66.50
2023-05-03T16:38:40.892Z,66.70
2023-05-03T16:41:08.903Z,66.40
2023-05-03T16:43:36.745Z,66.70
2023-05-03T16:46:04.872Z,66.70
2023-05-03T16:48:34.934Z,66.80
2023-05-03T16:51:02.652Z,66.60
2023-05-03T16:53:31.590Z,66.60
2023-05-03T16:55:59.426Z,66.40
2023-05-03T16:58:26.901Z,66.50
2023-05-03T17:00:54.505Z,66.40
2023-05-03T17:03:22.426Z,66.50
2023-05-03T17:05:50.133Z,66.40
2023-05-03T17:08:17.842Z,66.50
2023-05-03T17:10:45.535Z,66.10
2023-05-03T17:13:13.530Z,66.20
2023-05-03T17:15:44.067Z,66.10
2023-05-03T17:18:14.483Z,66.00
2023-05-03T17:20:43.215Z,64.90
2023-05-03T17:23:10.757Z,65.90
2023-05-03T17:25:38.302Z,66.00
2023-05-03T17:28:06.029Z,65.80
2023-05-03T17:30:34.907Z,65.70
2023-05-03T17:33:11.671Z,66.10
2023-05-03T17:35:39.215Z,65.20
2023-05-03T17:38:06.774Z,65.50
2023-05-03T17:40:35.318Z,65.50
2023-05-03T17:43:02.933Z,65.50
2023-05-03T17:45:30.517Z,65.60
2023-05-03T17:47:59.006Z,65.50
2023-05-03T17:50:26.559Z,65.50
2023-05-03T17:52:55.206Z,64.90
2023-05-03T17:55:22.857Z,65.30
2023-05-03T17:57:50.430Z,65.00
2023-05-03T18:00:19.392Z,65.20
2023-05-03T18:02:47.159Z,65.30
2023-05-03T18:05:18.539Z,65.10
2023-05-03T18:07:46.641Z,65.50
2023-05-03T18:10:16.615Z,64.80
2023-05-03T18:12:44.731Z,65.50
2023-05-03T18:15:12.585Z,65.60
2023-05-03T18:17:40.204Z,65.70
2023-05-03T18:20:09.141Z,65.60
2023-05-03T18:22:37.764Z,65.50
2023-05-03T18:25:07.793Z,66.10
2023-05-03T18:27:37.830Z,65.50
2023-05-03T18:30:07.132Z,65.60
2023-05-03T18:32:35.282Z,66.10
2023-05-03T18:35:03.825Z,65.40
2023-05-03T18:37:31.425Z,65.70
2023-05-03T18:39:58.983Z,65.70
2023-05-03T18:42:26.699Z,65.90
2023-05-03T18:44:54.551Z,66.10
2023-05-03T18:47:22.185Z,66.00
2023-05-03T18:49:53.237Z,65.80
2023-05-03T18:52:21.254Z,66.10
2023-05-03T18:54:50.031Z,66.00
2023-05-03T18:57:19.042Z,66.30
2023-05-03T18:59:59.408Z,65.80
2023-05-03T19:02:30.951Z,66.70
2023-05-03T19:05:00.427Z,66.00
2023-05-03T19:07:28.324Z,66.80
2023-05-03T19:09:56.675Z,66.60
2023-05-03T19:12:24.313Z,66.50
2023-05-03T19:14:52.222Z,66.50
2023-05-03T19:17:19.795Z,66.50
2023-05-03T19:19:47.269Z,66.30
2023-05-03T19:22:15.071Z,66.70
2023-05-03T19:24:44.149Z,66.50
2023-05-03T19:27:12.118Z,66.50
2023-05-03T19:29:39.837Z,66.70
2023-05-03T19:32:07.446Z,66.70
2023-05-03T19:34:36.624Z,66.50
2023-05-03T19:37:05.316Z,64.60
2023-05-03T19:39:33.090Z,64.70
2023-05-03T19:42:00.647Z,65.30
2023-05-03T19:44:31.089Z,65.50
2023-05-03T19:46:58.548Z,66.40
2023-05-03T19:49:26.159Z,66.80
2023-05-03T19:51:54.262Z,66.70
2023-05-03T19:54:22.673Z,66.40
2023-05-03T19:56:50.557Z,66.00
2023-05-03T19:59:18.481Z,66.00
2023-05-03T20:01:46.056Z,66.30
2023-05-03T20:04:13.806Z,66.20
2023-05-03T20:06:41.736Z,66.30
2023-05-03T20:09:09.524Z,66.60
2023-05-03T20:11:37.079Z,66.10
2023-05-03T20:14:08.438Z,66.40
2023-05-03T20:16:39.365Z,66.20
2023-05-03T20:19:14.835Z,66.50
2023-05-03T20:21:42.469Z,66.50
2023-05-03T20:24:11.155Z,66.10
2023-05-03T20:26:39.087Z,66.40
2023-05-03T20:29:06.632Z,65.10
2023-05-03T20:31:34.255Z,66.10
2023-05-03T20:34:01.818Z,65.30
2023-05-03T20:36:29.482Z,65.40
2023-05-03T20:38:57.086Z,65.70
2023-05-03T20:41:24.691Z,65.60
2023-05-03T20:43:53.727Z,65.30
2023-05-03T20:46:21.466Z,65.50
2023-05-03T20:48:50.288Z,65.20
2023-05-03T20:51:19.176Z,64.80
2023-05-03T20:53:46.809Z,65.40
2023-05-03T20:56:14.303Z,65.30
2023-05-03T20:58:41.859Z,65.00
2023-05-03T21:01:09.377Z,65.20
2023-05-03T21:03:37.163Z,65.60
2023-05-03T21:06:06.991Z,64.80
2023-05-03T21:08:36.145Z,64.70
2023-05-03T21:11:04.490Z,64.80
2023-05-03T21:13:35.931Z,64.40
2023-05-03T21:16:03.888Z,64.80
2023-05-03T21:18:31.413Z,64.90
2023-05-03T21:20:58.972Z,64.60
2023-05-03T21:23:26.472Z,64.10
2023-05-03T21:25:56.116Z,64.30
2023-05-03T21:28:24.059Z,64.50
2023-05-03T21:30:53.768Z,64.20
2023-05-03T21:33:21.750Z,64.40
2023-05-03T21:35:49.210Z,64.30
2023-05-03T21:38:17.923Z,64.50
2023-05-03T21:40:48.460Z,64.20
2023-05-03T21:43:16.102Z,64.30
2023-05-03T21:45:44.454Z,64.30
2023-05-03T21:48:12.944Z,64.10
2023-05-03T21:50:40.720Z,63.50
2023-05-03T21:53:08.292Z,63.60
2023-05-03T21:55:35.807Z,64.30
2023-05-03T21:58:03.351Z,63.80
2023-05-03T22:00:31.952Z,63.80
2023-05-03T22:02:59.555Z,63.40
2023-05-03T22:05:27.140Z,63.60
2023-05-03T22:07:54.655Z,63.50
2023-05-03T22:10:22.162Z,63.70
2023-05-03T22:12:49.799Z,63.40
2023-05-03T22:15:17.761Z,63.30
2023-05-03T22:17:45.280Z,63.30
2023-05-03T22:20:13.103Z,63.10
2023-05-03T22:22:40.649Z,63.00
2023-05-03T22:25:08.515Z,63.20
2023-05-03T22:27:37.032Z,63.10
2023-05-03T22:30:05.036Z,63.60
2023-05-03T22:32:32.837Z,63.30
2023-05-03T22:35:00.333Z,63.20
2023-05-03T22:37:27.812Z,63.50
2023-05-03T22:39:55.285Z,63.20
2023-05-03T22:42:22.785Z,63.00
2023-05-03T22:44:50.305Z,63.00
2023-05-03T22:47:17.945Z,63.10
2023-05-03T22:49:45.474Z,63.10
2023-05-03T22:52:13.129Z,63.00
2023-05-03T22:54:40.760Z,62.80
2023-05-03T22:57:08.311Z,62.90
2023-05-03T22:59:35.905Z,62.80
2023-05-03T23:02:03.489Z,62.70
2023-05-03T23:04:31.060Z,63.00
2023-05-03T23:06:58.561Z,62.90
2023-05-03T23:09:26.083Z,63.00
2023-05-03T23:11:53.550Z,62.60
2023-05-03T23:14:21.163Z,62.60
2023-05-03T23:16:48.677Z,62.70
2023-05-03T23:19:16.431Z,62.70
2023-05-03T23:21:44.284Z,62.60
2023-05-03T23:24:11.817Z,62.60
2023-05-03T23:26:39.276Z,62.50
2023-05-03T23:29:08.778Z,62.50
2023-05-03T23:31:36.999Z,62.50
2023-05-03T23:34:05.348Z,62.60
2023-05-03T23:36:34.333Z,62.40
2023-05-03T23:39:01.865Z,62.70
2023-05-03T23:41:29.444Z,62.10
2023-05-03T23:43:57.170Z,63.30
2023-05-03T23:46:24.695Z,62.60
2023-05-03T23:48:52.211Z,62.60
2023-05-03T23:51:19.721Z,62.70
2023-05-03T23:53:47.386Z,63.50
2023-05-03T23:56:14.887Z,63.70
2023-05-03T23:58:42.392Z,63.80
